sensor_id;sensor_type;location;lat;lon;timestamp;temperature;humidity
2202;DHT22;1107;48.654;9.250;2024-02-26T00:01:43;7.70;99.90
2202;DHT22;1107;48.654;9.250;2024-02-26T00:04:10;7.70;99.90
2202;DHT22;1107;48.654;9.250;2024-02-26T00:06:37;7.60;99.90
2202;DHT22;1107;48.654;9.250;2024-02-26T00:09:07;7.70;99.90
2202;DHT22;1107;48.654;9.250;2024-02-26T00:11:35;7.50;99.90
2202;DHT22;1107;48.654;9.250;2024-02-26T00:14:01;7.50;99.90
2202;DHT22;1107;48.654;9.250;2024-02-26T00:16:28;7.50;99.90
2202;DHT22;1107;48.654;9.250;2024-02-26T00:18:55;7.50;99.90
2202;DHT22;1107;48.654;9.250;2024-02-26T00:21:22;7.50;99.90
2202;DHT22;1107;48.654;9.250;2024-02-26T00:23:49;7.50;99.90
2202;DHT22;1107;48.654;9.250;2024-02-26T00:26:17;7.50;99.90
2202;DHT22;1107;48.654;9.250;2024-02-26T00:28:44;7.60;99.90
2202;DHT22;1107;48.654;9.250;2024-02-26T00:31:10;7.60;99.90
2202;DHT22;1107;48.654;9.250;2024-02-26T00:33:37;7.50;99.90
2202;DHT22;1107;48.654;9.250;2024-02-26T00:36:04;7.50;99.90
2202;DHT22;1107;48.654;9.250;2024-02-26T00:38:31;7.40;99.90
2202;DHT22;1107;48.654;9.250;2024-02-26T00:40:58;7.50;99.90
2202;DHT22;1107;48.654;9.250;2024-02-26T00:43:26;7.50;99.90
2202;DHT22;1107;48.654;9.250;2024-02-26T00:45:53;7.50;99.90
2202;DHT22;1107;48.654;9.250;2024-02-26T00:48:20;7.50;99.90
2202;DHT22;1107;48.654;9.250;2024-02-26T00:50:47;7.50;99.90
2202;DHT22;1107;48.654;9.250;2024-02-26T00:53:13;7.60;99.90
2202;DHT22;1107;48.654;9.250;2024-02-26T00:55:40;7.60;99.90
2202;DHT22;1107;48.654;9.250;2024-02-26T00:58:07;7.60;99.90
2202;DHT22;1107;48.654;9.250;2024-02-26T01:00:35;7.50;99.90
2202;DHT22;1107;48.654;9.250;2024-02-26T01:03:01;7.50;99.90
2202;DHT22;1107;48.654;9.250;2024-02-26T01:05:29;7.60;99.90
2202;DHT22;1107;48.654;9.250;2024-02-26T01:07:55;7.60;99.90
2202;DHT22;1107;48.654;9.250;2024-02-26T01:10:22;7.60;99.90
2202;DHT22;1107;48.654;9.250;2024-02-26T01:12:49;7.50;99.90
2202;DHT22;1107;48.654;9.250;2024-02-26T01:15:16;7.50;99.90
2202;DHT22;1107;48.654;9.250;2024-02-26T01:17:45;7.60;99.90
2202;DHT22;1107;48.654;9.250;2024-02-26T01:20:12;7.60;99.90
2202;DHT22;1107;48.654;9.250;2024-02-26T01:22:39;7.60;99.90
2202;DHT22;1107;48.654;9.250;2024-02-26T01:25:06;7.60;99.90
2202;DHT22;1107;48.654;9.250;2024-02-26T01:27:34;7.60;99.90
2202;DHT22;1107;48.654;9.250;2024-02-26T01:30:01;7.60;99.90
2202;DHT22;1107;48.654;9.250;2024-02-26T01:32:29;7.50;99.90
2202;DHT22;1107;48.654;9.250;2024-02-26T01:34:57;7.50;99.90
2202;DHT22;1107;48.654;9.250;2024-02-26T01:37:24;7.50;99.90
2202;DHT22;1107;48.654;9.250;2024-02-26T01:39:51;7.50;99.90
2202;DHT22;1107;48.654;9.250;2024-02-26T01:42:17;7.50;99.90
2202;DHT22;1107;48.654;9.250;2024-02-26T01:44:44;7.50;99.90
2202;DHT22;1107;48.654;9.250;2024-02-26T01:47:11;7.50;99.90
2202;DHT22;1107;48.654;9.250;2024-02-26T01:49:38;7.60;99.90
2202;DHT22;1107;48.654;9.250;2024-02-26T01:52:09;7.60;99.90
2202;DHT22;1107;48.654;9.250;2024-02-26T01:54:36;7.60;99.90
2202;DHT22;1107;48.654;9.250;2024-02-26T01:57:03;7.60;99.90
2202;DHT22;1107;48.654;9.250;2024-02-26T01:59:31;7.60;99.90
2202;DHT22;1107;48.654;9.250;2024-02-26T02:01:59;7.60;99.90
2202;DHT22;1107;48.654;9.250;2024-02-26T02:04:27;7.70;99.90
2202;DHT22;1107;48.654;9.250;2024-02-26T02:06:54;7.70;99.90
2202;DHT22;1107;48.654;9.250;2024-02-26T02:09:22;7.70;99.90
2202;DHT22;1107;48.654;9.250;2024-02-26T02:11:49;7.80;99.90
2202;DHT22;1107;48.654;9.250;2024-02-26T02:14:16;7.80;99.90
2202;DHT22;1107;48.654;9.250;2024-02-26T02:16:42;7.80;99.90
2202;DHT22;1107;48.654;9.250;2024-02-26T02:19:09;7.90;99.90
2202;DHT22;1107;48.654;9.250;2024-02-26T02:21:37;7.90;99.90
2202;DHT22;1107;48.654;9.250;2024-02-26T02:24:04;7.90;99.90
2202;DHT22;1107;48.654;9.250;2024-02-26T02:26:31;8.00;99.90
2202;DHT22;1107;48.654;9.250;2024-02-26T02:28:58;7.90;99.90
2202;DHT22;1107;48.654;9.250;2024-02-26T02:31:25;8.00;99.90
2202;DHT22;1107;48.654;9.250;2024-02-26T02:33:52;8.00;99.90
2202;DHT22;1107;48.654;9.250;2024-02-26T02:36:19;8.00;99.90
2202;DHT22;1107;48.654;9.250;2024-02-26T02:38:49;8.00;99.90
2202;DHT22;1107;48.654;9.250;2024-02-26T02:41:16;7.90;99.90
2202;DHT22;1107;48.654;9.250;2024-02-26T02:43:43;7.90;99.90
2202;DHT22;1107;48.654;9.250;2024-02-26T02:46:10;7.90;99.90
2202;DHT22;1107;48.654;9.250;2024-02-26T02:48:37;7.90;99.90
2202;DHT22;1107;48.654;9.250;2024-02-26T02:51:04;7.90;99.90
2202;DHT22;1107;48.654;9.250;2024-02-26T02:53:31;7.90;99.90
2202;DHT22;1107;48.654;9.250;2024-02-26T02:55:59;7.90;99.90
2202;DHT22;1107;48.654;9.250;2024-02-26T02:58:26;7.90;99.90
2202;DHT22;1107;48.654;9.250;2024-02-26T03:00:52;7.90;99.90
2202;DHT22;1107;48.654;9.250;2024-02-26T03:03:20;7.90;99.90
2202;DHT22;1107;48.654;9.250;2024-02-26T03:05:49;7.90;99.90
2202;DHT22;1107;48.654;9.250;2024-02-26T03:08:16;7.90;99.90
2202;DHT22;1107;48.654;9.250;2024-02-26T03:10:45;7.90;99.90
2202;DHT22;1107;48.654;9.250;2024-02-26T03:13:13;7.80;99.90
2202;DHT22;1107;48.654;9.250;2024-02-26T03:15:40;7.90;99.90
2202;DHT22;1107;48.654;9.250;2024-02-26T03:18:07;7.90;99.90
2202;DHT22;1107;48.654;9.250;2024-02-26T03:20:34;7.90;99.90
2202;DHT22;1107;48.654;9.250;2024-02-26T03:23:01;7.90;99.90
2202;DHT22;1107;48.654;9.250;2024-02-26T03:25:27;7.90;99.90
2202;DHT22;1107;48.654;9.250;2024-02-26T03:27:54;7.90;99.90
2202;DHT22;1107;48.654;9.250;2024-02-26T03:30:22;7.80;99.90
2202;DHT22;1107;48.654;9.250;2024-02-26T03:32:49;7.80;99.90
2202;DHT22;1107;48.654;9.250;2024-02-26T03:35:16;7.80;99.90
2202;DHT22;1107;48.654;9.250;2024-02-26T03:37:42;7.70;99.90
2202;DHT22;1107;48.654;9.250;2024-02-26T03:40:09;7.70;99.90
2202;DHT22;1107;48.654;9.250;2024-02-26T03:42:38;7.70;99.90
2202;DHT22;1107;48.654;9.250;2024-02-26T03:45:05;7.60;99.90
2202;DHT22;1107;48.654;9.250;2024-02-26T03:47:33;7.60;99.90
2202;DHT22;1107;48.654;9.250;2024-02-26T03:50:00;7.60;99.90
2202;DHT22;1107;48.654;9.250;2024-02-26T03:52:27;7.60;99.90
2202;DHT22;1107;48.654;9.250;2024-02-26T03:54:54;7.60;99.90
2202;DHT22;1107;48.654;9.250;2024-02-26T03:57:20;7.60;99.90
2202;DHT22;1107;48.654;9.250;2024-02-26T03:59:47;7.60;99.90
2202;DHT22;1107;48.654;9.250;2024-02-26T04:02:14;7.60;99.90
2202;DHT22;1107;48.654;9.250;2024-02-26T04:04:42;7.60;99.90
2202;DHT22;1107;48.654;9.250;2024-02-26T04:07:08;7.60;99.90
2202;DHT22;1107;48.654;9.250;2024-02-26T04:09:36;7.50;99.90
2202;DHT22;1107;48.654;9.250;2024-02-26T04:12:03;7.30;99.90
2202;DHT22;1107;48.654;9.250;2024-02-26T04:14:30;7.20;99.90
2202;DHT22;1107;48.654;9.250;2024-02-26T04:16:57;7.10;99.90
2202;DHT22;1107;48.654;9.250;2024-02-26T04:19:23;7.10;99.90
2202;DHT22;1107;48.654;9.250;2024-02-26T04:21:52;7.00;99.90
2202;DHT22;1107;48.654;9.250;2024-02-26T04:24:18;7.10;99.90
2202;DHT22;1107;48.654;9.250;2024-02-26T04:26:45;7.00;99.90
2202;DHT22;1107;48.654;9.250;2024-02-26T04:29:12;7.00;99.90
2202;DHT22;1107;48.654;9.250;2024-02-26T04:31:38;7.00;99.90
2202;DHT22;1107;48.654;9.250;2024-02-26T04:34:05;7.00;99.90
2202;DHT22;1107;48.654;9.250;2024-02-26T04:36:32;7.00;99.90
2202;DHT22;1107;48.654;9.250;2024-02-26T04:39:00;7.00;99.90
2202;DHT22;1107;48.654;9.250;2024-02-26T04:41:27;7.00;99.90
2202;DHT22;1107;48.654;9.250;2024-02-26T04:43:54;7.00;99.90
2202;DHT22;1107;48.654;9.250;2024-02-26T04:46:21;7.00;99.90
2202;DHT22;1107;48.654;9.250;2024-02-26T04:48:47;7.00;99.90
2202;DHT22;1107;48.654;9.250;2024-02-26T04:51:14;7.10;99.90
2202;DHT22;1107;48.654;9.250;2024-02-26T04:53:41;7.10;99.90
2202;DHT22;1107;48.654;9.250;2024-02-26T04:56:09;7.10;99.90
2202;DHT22;1107;48.654;9.250;2024-02-26T04:58:36;7.10;99.90
2202;DHT22;1107;48.654;9.250;2024-02-26T05:01:03;7.20;99.90
2202;DHT22;1107;48.654;9.250;2024-02-26T05:03:30;7.20;99.90
2202;DHT22;1107;48.654;9.250;2024-02-26T05:05:56;7.20;99.90
2202;DHT22;1107;48.654;9.250;2024-02-26T05:08:23;7.20;99.90
2202;DHT22;1107;48.654;9.250;2024-02-26T05:10:50;7.30;99.90
2202;DHT22;1107;48.654;9.250;2024-02-26T05:13:18;7.30;99.90
2202;DHT22;1107;48.654;9.250;2024-02-26T05:15:45;7.30;99.90
2202;DHT22;1107;48.654;9.250;2024-02-26T05:18:14;7.40;99.90
2202;DHT22;1107;48.654;9.250;2024-02-26T05:20:41;7.40;99.90
2202;DHT22;1107;48.654;9.250;2024-02-26T05:23:08;7.40;99.90
2202;DHT22;1107;48.654;9.250;2024-02-26T05:25:34;7.50;99.90
2202;DHT22;1107;48.654;9.250;2024-02-26T05:28:01;7.50;99.90
2202;DHT22;1107;48.654;9.250;2024-02-26T05:30:29;7.50;99.90
2202;DHT22;1107;48.654;9.250;2024-02-26T05:32:56;7.50;99.90
2202;DHT22;1107;48.654;9.250;2024-02-26T05:35:23;7.40;99.90
2202;DHT22;1107;48.654;9.250;2024-02-26T05:37:49;7.40;99.90
2202;DHT22;1107;48.654;9.250;2024-02-26T05:40:16;7.50;99.90
2202;DHT22;1107;48.654;9.250;2024-02-26T05:42:43;7.50;99.90
2202;DHT22;1107;48.654;9.250;2024-02-26T05:45:11;7.50;99.90
2202;DHT22;1107;48.654;9.250;2024-02-26T05:47:39;7.40;99.90
2202;DHT22;1107;48.654;9.250;2024-02-26T05:50:08;7.40;99.90
2202;DHT22;1107;48.654;9.250;2024-02-26T05:52:36;7.40;99.90
2202;DHT22;1107;48.654;9.250;2024-02-26T05:55:03;7.30;99.90
2202;DHT22;1107;48.654;9.250;2024-02-26T05:57:30;7.20;99.90
2202;DHT22;1107;48.654;9.250;2024-02-26T05:59:57;7.20;99.90
2202;DHT22;1107;48.654;9.250;2024-02-26T06:02:26;7.20;99.90
2202;DHT22;1107;48.654;9.250;2024-02-26T06:04:54;7.10;99.90
2202;DHT22;1107;48.654;9.250;2024-02-26T06:07:21;7.10;99.90
2202;DHT22;1107;48.654;9.250;2024-02-26T06:09:47;7.00;99.90
2202;DHT22;1107;48.654;9.250;2024-02-26T06:12:15;6.90;99.90
2202;DHT22;1107;48.654;9.250;2024-02-26T06:14:41;6.80;99.90
2202;DHT22;1107;48.654;9.250;2024-02-26T06:17:08;6.80;99.90
2202;DHT22;1107;48.654;9.250;2024-02-26T06:19:35;6.80;99.90
2202;DHT22;1107;48.654;9.250;2024-02-26T06:22:03;6.80;99.90
2202;DHT22;1107;48.654;9.250;2024-02-26T06:24:30;6.80;99.90
2202;DHT22;1107;48.654;9.250;2024-02-26T06:26:57;6.80;99.90
2202;DHT22;1107;48.654;9.250;2024-02-26T06:29:24;6.90;99.90
2202;DHT22;1107;48.654;9.250;2024-02-26T06:31:50;6.90;99.90
2202;DHT22;1107;48.654;9.250;2024-02-26T06:34:17;6.90;99.90
2202;DHT22;1107;48.654;9.250;2024-02-26T06:36:44;6.80;99.90
2202;DHT22;1107;48.654;9.250;2024-02-26T06:39:12;6.80;99.90
2202;DHT22;1107;48.654;9.250;2024-02-26T06:41:41;6.80;99.90
2202;DHT22;1107;48.654;9.250;2024-02-26T06:44:08;6.80;99.90
2202;DHT22;1107;48.654;9.250;2024-02-26T06:46:35;6.80;99.90
2202;DHT22;1107;48.654;9.250;2024-02-26T06:49:01;6.80;99.90
2202;DHT22;1107;48.654;9.250;2024-02-26T06:51:28;6.90;99.90
2202;DHT22;1107;48.654;9.250;2024-02-26T06:53:55;7.00;99.90
2202;DHT22;1107;48.654;9.250;2024-02-26T06:56:23;7.00;99.90
2202;DHT22;1107;48.654;9.250;2024-02-26T06:58:50;6.90;99.90
2202;DHT22;1107;48.654;9.250;2024-02-26T07:01:17;6.90;99.90
2202;DHT22;1107;48.654;9.250;2024-02-26T07:03:44;6.90;99.90
2202;DHT22;1107;48.654;9.250;2024-02-26T07:06:11;6.90;99.90
2202;DHT22;1107;48.654;9.250;2024-02-26T07:08:38;6.90;99.90
2202;DHT22;1107;48.654;9.250;2024-02-26T07:11:07;6.90;99.90
2202;DHT22;1107;48.654;9.250;2024-02-26T07:13:35;7.00;99.90
2202;DHT22;1107;48.654;9.250;2024-02-26T07:16:02;7.10;99.90
2202;DHT22;1107;48.654;9.250;2024-02-26T07:18:29;7.10;99.90
2202;DHT22;1107;48.654;9.250;2024-02-26T07:20:56;7.20;99.90
2202;DHT22;1107;48.654;9.250;2024-02-26T07:23:23;7.20;99.90
2202;DHT22;1107;48.654;9.250;2024-02-26T07:25:49;7.30;99.90
2202;DHT22;1107;48.654;9.250;2024-02-26T07:28:18;7.40;99.90
2202;DHT22;1107;48.654;9.250;2024-02-26T07:30:46;7.40;99.90
2202;DHT22;1107;48.654;9.250;2024-02-26T07:33:13;7.40;99.90
2202;DHT22;1107;48.654;9.250;2024-02-26T07:35:40;7.40;99.90
2202;DHT22;1107;48.654;9.250;2024-02-26T07:38:07;7.40;99.90
2202;DHT22;1107;48.654;9.250;2024-02-26T07:40:34;7.50;99.90
2202;DHT22;1107;48.654;9.250;2024-02-26T07:43:01;7.50;99.90
2202;DHT22;1107;48.654;9.250;2024-02-26T07:45:28;7.60;99.90
2202;DHT22;1107;48.654;9.250;2024-02-26T07:47:56;7.60;99.90
2202;DHT22;1107;48.654;9.250;2024-02-26T07:50:23;7.70;99.90
2202;DHT22;1107;48.654;9.250;2024-02-26T07:52:50;7.80;99.90
2202;DHT22;1107;48.654;9.250;2024-02-26T07:55:18;7.90;99.90
2202;DHT22;1107;48.654;9.250;2024-02-26T07:57:45;7.90;99.90
2202;DHT22;1107;48.654;9.250;2024-02-26T08:00:12;8.00;99.90
2202;DHT22;1107;48.654;9.250;2024-02-26T08:02:42;7.90;99.90
2202;DHT22;1107;48.654;9.250;2024-02-26T08:05:10;7.80;99.90
2202;DHT22;1107;48.654;9.250;2024-02-26T08:07:36;7.70;99.90
2202;DHT22;1107;48.654;9.250;2024-02-26T08:10:03;7.70;99.90
2202;DHT22;1107;48.654;9.250;2024-02-26T08:12:30;7.70;99.90
2202;DHT22;1107;48.654;9.250;2024-02-26T08:14:57;7.70;99.90
2202;DHT22;1107;48.654;9.250;2024-02-26T08:17:24;7.70;99.90
2202;DHT22;1107;48.654;9.250;2024-02-26T08:19:52;7.80;99.90
2202;DHT22;1107;48.654;9.250;2024-02-26T08:22:20;7.80;99.90
2202;DHT22;1107;48.654;9.250;2024-02-26T08:24:47;7.90;99.90
2202;DHT22;1107;48.654;9.250;2024-02-26T08:27:14;8.00;99.90
2202;DHT22;1107;48.654;9.250;2024-02-26T08:29:40;8.00;99.90
2202;DHT22;1107;48.654;9.250;2024-02-26T08:32:07;8.10;99.90
2202;DHT22;1107;48.654;9.250;2024-02-26T08:34:34;8.20;99.90
2202;DHT22;1107;48.654;9.250;2024-02-26T08:37:01;8.30;99.90
2202;DHT22;1107;48.654;9.250;2024-02-26T08:39:29;8.30;99.90
2202;DHT22;1107;48.654;9.250;2024-02-26T08:41:55;8.30;99.90
2202;DHT22;1107;48.654;9.250;2024-02-26T08:44:22;8.40;99.90
2202;DHT22;1107;48.654;9.250;2024-02-26T08:46:49;8.50;99.90
2202;DHT22;1107;48.654;9.250;2024-02-26T08:49:16;8.50;99.90
2202;DHT22;1107;48.654;9.250;2024-02-26T08:51:43;8.50;99.90
2202;DHT22;1107;48.654;9.250;2024-02-26T08:54:10;8.60;99.90
2202;DHT22;1107;48.654;9.250;2024-02-26T08:56:38;8.70;99.90
2202;DHT22;1107;48.654;9.250;2024-02-26T08:59:05;8.80;99.90
2202;DHT22;1107;48.654;9.250;2024-02-26T09:01:32;8.90;99.90
2202;DHT22;1107;48.654;9.250;2024-02-26T09:03:59;9.00;99.90
2202;DHT22;1107;48.654;9.250;2024-02-26T09:06:25;8.90;99.90
2202;DHT22;1107;48.654;9.250;2024-02-26T09:08:52;8.90;99.90
2202;DHT22;1107;48.654;9.250;2024-02-26T09:11:19;9.00;99.90
2202;DHT22;1107;48.654;9.250;2024-02-26T09:13:47;9.00;99.90
2202;DHT22;1107;48.654;9.250;2024-02-26T09:16:14;9.00;99.90
2202;DHT22;1107;48.654;9.250;2024-02-26T09:18:41;9.10;99.90
2202;DHT22;1107;48.654;9.250;2024-02-26T09:21:08;9.00;99.90
2202;DHT22;1107;48.654;9.250;2024-02-26T09:23:34;9.00;99.90
2202;DHT22;1107;48.654;9.250;2024-02-26T09:26:02;9.00;99.90
2202;DHT22;1107;48.654;9.250;2024-02-26T09:28:29;9.00;99.90
2202;DHT22;1107;48.654;9.250;2024-02-26T09:31:01;9.00;99.90
2202;DHT22;1107;48.654;9.250;2024-02-26T09:33:28;9.00;99.90
2202;DHT22;1107;48.654;9.250;2024-02-26T09:35:55;9.10;99.90
2202;DHT22;1107;48.654;9.250;2024-02-26T09:38:21;9.10;99.90
2202;DHT22;1107;48.654;9.250;2024-02-26T09:40:49;9.10;99.90
2202;DHT22;1107;48.654;9.250;2024-02-26T09:43:16;9.10;99.90
2202;DHT22;1107;48.654;9.250;2024-02-26T09:45:43;9.20;99.90
2202;DHT22;1107;48.654;9.250;2024-02-26T09:48:12;9.30;99.90
2202;DHT22;1107;48.654;9.250;2024-02-26T09:50:40;9.50;99.90
2202;DHT22;1107;48.654;9.250;2024-02-26T09:53:08;9.60;99.90
2202;DHT22;1107;48.654;9.250;2024-02-26T09:55:35;9.60;99.90
2202;DHT22;1107;48.654;9.250;2024-02-26T09:58:02;9.80;99.90
2202;DHT22;1107;48.654;9.250;2024-02-26T10:00:30;10.10;99.90
2202;DHT22;1107;48.654;9.250;2024-02-26T10:02:59;10.30;99.90
2202;DHT22;1107;48.654;9.250;2024-02-26T10:05:30;10.80;99.90
2202;DHT22;1107;48.654;9.250;2024-02-26T10:07:58;11.60;99.90
2202;DHT22;1107;48.654;9.250;2024-02-26T10:10:26;12.20;99.90
2202;DHT22;1107;48.654;9.250;2024-02-26T10:12:54;12.90;99.90
2202;DHT22;1107;48.654;9.250;2024-02-26T10:15:20;13.20;99.90
2202;DHT22;1107;48.654;9.250;2024-02-26T10:17:47;13.10;99.90
2202;DHT22;1107;48.654;9.250;2024-02-26T10:20:14;12.90;99.90
2202;DHT22;1107;48.654;9.250;2024-02-26T10:22:44;12.90;99.90
2202;DHT22;1107;48.654;9.250;2024-02-26T10:25:11;12.80;99.90
2202;DHT22;1107;48.654;9.250;2024-02-26T10:27:40;12.80;99.90
2202;DHT22;1107;48.654;9.250;2024-02-26T10:30:15;13.00;99.90
2202;DHT22;1107;48.654;9.250;2024-02-26T10:32:42;13.70;99.90
2202;DHT22;1107;48.654;9.250;2024-02-26T10:35:09;14.30;99.90
2202;DHT22;1107;48.654;9.250;2024-02-26T10:37:36;14.80;99.90
2202;DHT22;1107;48.654;9.250;2024-02-26T10:40:05;14.70;99.90
2202;DHT22;1107;48.654;9.250;2024-02-26T10:42:32;14.30;99.90
2202;DHT22;1107;48.654;9.250;2024-02-26T10:44:58;13.70;99.90
2202;DHT22;1107;48.654;9.250;2024-02-26T10:47:27;13.40;99.90
2202;DHT22;1107;48.654;9.250;2024-02-26T10:49:54;13.30;99.90
2202;DHT22;1107;48.654;9.250;2024-02-26T10:52:22;13.20;99.90
2202;DHT22;1107;48.654;9.250;2024-02-26T10:54:50;13.20;99.90
2202;DHT22;1107;48.654;9.250;2024-02-26T10:57:21;13.10;99.90
2202;DHT22;1107;48.654;9.250;2024-02-26T10:59:49;13.30;99.90
2202;DHT22;1107;48.654;9.250;2024-02-26T11:02:16;13.40;99.90
2202;DHT22;1107;48.654;9.250;2024-02-26T11:04:44;13.40;99.90
2202;DHT22;1107;48.654;9.250;2024-02-26T11:07:10;13.50;99.90
2202;DHT22;1107;48.654;9.250;2024-02-26T11:09:38;13.60;99.90
2202;DHT22;1107;48.654;9.250;2024-02-26T11:12:10;13.70;99.90
2202;DHT22;1107;48.654;9.250;2024-02-26T11:14:40;13.60;99.90
2202;DHT22;1107;48.654;9.250;2024-02-26T11:17:07;13.50;99.90
2202;DHT22;1107;48.654;9.250;2024-02-26T11:19:35;13.30;99.90
2202;DHT22;1107;48.654;9.250;2024-02-26T11:22:02;13.30;99.90
2202;DHT22;1107;48.654;9.250;2024-02-26T11:24:29;13.30;99.90
2202;DHT22;1107;48.654;9.250;2024-02-26T11:27:01;13.20;99.90
2202;DHT22;1107;48.654;9.250;2024-02-26T11:29:29;13.00;99.90
2202;DHT22;1107;48.654;9.250;2024-02-26T11:32:00;13.00;99.90
2202;DHT22;1107;48.654;9.250;2024-02-26T11:34:27;13.10;99.90
2202;DHT22;1107;48.654;9.250;2024-02-26T11:36:54;13.30;99.90
2202;DHT22;1107;48.654;9.250;2024-02-26T11:39:21;13.40;99.90
2202;DHT22;1107;48.654;9.250;2024-02-26T11:41:48;13.40;99.90
2202;DHT22;1107;48.654;9.250;2024-02-26T11:44:14;13.30;99.90
2202;DHT22;1107;48.654;9.250;2024-02-26T11:46:54;13.20;99.90
2202;DHT22;1107;48.654;9.250;2024-02-26T11:49:31;13.10;99.90
2202;DHT22;1107;48.654;9.250;2024-02-26T11:51:59;13.30;99.90
2202;DHT22;1107;48.654;9.250;2024-02-26T11:57:23;13.80;99.90
2202;DHT22;1107;48.654;9.250;2024-02-26T11:59:50;14.00;99.90
2202;DHT22;1107;48.654;9.250;2024-02-26T12:02:37;14.30;99.90
2202;DHT22;1107;48.654;9.250;2024-02-26T12:05:06;15.00;99.90
2202;DHT22;1107;48.654;9.250;2024-02-26T12:07:34;15.80;99.90
2202;DHT22;1107;48.654;9.250;2024-02-26T12:13:03;16.80;99.90
2202;DHT22;1107;48.654;9.250;2024-02-26T12:15:31;17.40;99.90
2202;DHT22;1107;48.654;9.250;2024-02-26T12:18:00;18.10;99.90
2202;DHT22;1107;48.654;9.250;2024-02-26T12:20:28;18.10;99.90
2202;DHT22;1107;48.654;9.250;2024-02-26T12:22:55;18.00;99.90
2202;DHT22;1107;48.654;9.250;2024-02-26T12:25:23;17.80;99.90
2202;DHT22;1107;48.654;9.250;2024-02-26T12:27:50;18.00;99.90
2202;DHT22;1107;48.654;9.250;2024-02-26T12:30:17;17.70;99.90
2202;DHT22;1107;48.654;9.250;2024-02-26T12:32:44;17.30;99.90
2202;DHT22;1107;48.654;9.250;2024-02-26T12:35:11;16.70;99.90
2202;DHT22;1107;48.654;9.250;2024-02-26T12:37:39;16.40;99.90
2202;DHT22;1107;48.654;9.250;2024-02-26T12:40:06;16.20;99.90
2202;DHT22;1107;48.654;9.250;2024-02-26T12:42:34;16.10;99.90
2202;DHT22;1107;48.654;9.250;2024-02-26T12:45:05;16.20;99.90
2202;DHT22;1107;48.654;9.250;2024-02-26T12:47:37;16.50;99.90
2202;DHT22;1107;48.654;9.250;2024-02-26T12:50:05;16.90;99.90
2202;DHT22;1107;48.654;9.250;2024-02-26T12:52:32;17.00;99.90
2202;DHT22;1107;48.654;9.250;2024-02-26T12:55:00;16.80;99.90
2202;DHT22;1107;48.654;9.250;2024-02-26T12:57:28;16.60;99.90
2202;DHT22;1107;48.654;9.250;2024-02-26T12:59:55;16.40;99.90
2202;DHT22;1107;48.654;9.250;2024-02-26T13:02:22;16.00;99.90
2202;DHT22;1107;48.654;9.250;2024-02-26T13:04:49;15.70;99.90
2202;DHT22;1107;48.654;9.250;2024-02-26T13:07:16;15.40;99.90
2202;DHT22;1107;48.654;9.250;2024-02-26T13:09:43;15.20;99.90
2202;DHT22;1107;48.654;9.250;2024-02-26T13:12:11;15.10;99.90
2202;DHT22;1107;48.654;9.250;2024-02-26T13:14:38;15.10;99.90
2202;DHT22;1107;48.654;9.250;2024-02-26T13:17:05;15.00;99.90
2202;DHT22;1107;48.654;9.250;2024-02-26T13:19:32;14.90;99.90
2202;DHT22;1107;48.654;9.250;2024-02-26T13:22:03;14.80;99.90
2202;DHT22;1107;48.654;9.250;2024-02-26T13:24:30;14.80;99.90
2202;DHT22;1107;48.654;9.250;2024-02-26T13:26:57;14.90;99.90
2202;DHT22;1107;48.654;9.250;2024-02-26T13:29:25;14.90;99.90
2202;DHT22;1107;48.654;9.250;2024-02-26T13:31:55;14.90;99.90
2202;DHT22;1107;48.654;9.250;2024-02-26T13:34:23;14.90;99.90
2202;DHT22;1107;48.654;9.250;2024-02-26T13:36:50;14.90;99.90
2202;DHT22;1107;48.654;9.250;2024-02-26T13:39:21;14.80;99.90
2202;DHT22;1107;48.654;9.250;2024-02-26T13:41:49;14.80;99.90
2202;DHT22;1107;48.654;9.250;2024-02-26T13:44:15;14.80;99.90
2202;DHT22;1107;48.654;9.250;2024-02-26T13:46:44;14.80;99.90
2202;DHT22;1107;48.654;9.250;2024-02-26T13:49:10;14.90;99.90
2202;DHT22;1107;48.654;9.250;2024-02-26T13:51:37;15.10;99.90
2202;DHT22;1107;48.654;9.250;2024-02-26T13:54:04;15.20;99.90
2202;DHT22;1107;48.654;9.250;2024-02-26T13:56:30;15.40;99.90
2202;DHT22;1107;48.654;9.250;2024-02-26T13:58:57;15.70;99.90
2202;DHT22;1107;48.654;9.250;2024-02-26T14:01:24;16.00;99.90
2202;DHT22;1107;48.654;9.250;2024-02-26T14:03:53;16.10;99.90
2202;DHT22;1107;48.654;9.250;2024-02-26T14:06:20;16.40;99.90
2202;DHT22;1107;48.654;9.250;2024-02-26T14:08:47;16.80;99.90
2202;DHT22;1107;48.654;9.250;2024-02-26T14:11:14;17.50;99.90
2202;DHT22;1107;48.654;9.250;2024-02-26T14:13:40;18.20;99.90
2202;DHT22;1107;48.654;9.250;2024-02-26T14:16:07;18.50;99.90
2202;DHT22;1107;48.654;9.250;2024-02-26T14:18:36;18.60;99.90
2202;DHT22;1107;48.654;9.250;2024-02-26T14:21:04;18.00;99.90
2202;DHT22;1107;48.654;9.250;2024-02-26T14:23:31;17.90;99.90
2202;DHT22;1107;48.654;9.250;2024-02-26T14:25:57;18.10;99.90
2202;DHT22;1107;48.654;9.250;2024-02-26T14:28:25;18.30;99.90
2202;DHT22;1107;48.654;9.250;2024-02-26T14:30:53;18.70;99.90
2202;DHT22;1107;48.654;9.250;2024-02-26T14:33:20;19.10;99.90
2202;DHT22;1107;48.654;9.250;2024-02-26T14:35:47;19.20;99.90
2202;DHT22;1107;48.654;9.250;2024-02-26T14:38:15;19.60;99.90
2202;DHT22;1107;48.654;9.250;2024-02-26T14:40:42;19.10;99.90
2202;DHT22;1107;48.654;9.250;2024-02-26T14:43:09;18.20;99.90
2202;DHT22;1107;48.654;9.250;2024-02-26T14:45:36;17.60;99.90
2202;DHT22;1107;48.654;9.250;2024-02-26T14:48:04;17.10;99.90
2202;DHT22;1107;48.654;9.250;2024-02-26T14:50:31;16.80;99.90
2202;DHT22;1107;48.654;9.250;2024-02-26T14:52:58;16.50;99.90
2202;DHT22;1107;48.654;9.250;2024-02-26T14:55:27;16.20;99.90
2202;DHT22;1107;48.654;9.250;2024-02-26T14:57:53;15.80;99.90
2202;DHT22;1107;48.654;9.250;2024-02-26T15:00:20;15.30;99.90
2202;DHT22;1107;48.654;9.250;2024-02-26T15:02:47;15.00;99.90
2202;DHT22;1107;48.654;9.250;2024-02-26T15:05:14;14.60;99.90
2202;DHT22;1107;48.654;9.250;2024-02-26T15:07:42;14.40;99.90
2202;DHT22;1107;48.654;9.250;2024-02-26T15:10:09;14.20;99.90
2202;DHT22;1107;48.654;9.250;2024-02-26T15:12:37;14.10;99.90
2202;DHT22;1107;48.654;9.250;2024-02-26T15:15:04;14.00;99.90
2202;DHT22;1107;48.654;9.250;2024-02-26T15:17:31;13.90;99.90
2202;DHT22;1107;48.654;9.250;2024-02-26T15:20:00;13.70;99.90
2202;DHT22;1107;48.654;9.250;2024-02-26T15:22:27;13.60;99.90
2202;DHT22;1107;48.654;9.250;2024-02-26T15:24:54;13.50;99.90
2202;DHT22;1107;48.654;9.250;2024-02-26T15:27:21;13.30;99.90
2202;DHT22;1107;48.654;9.250;2024-02-26T15:29:49;13.30;99.90
2202;DHT22;1107;48.654;9.250;2024-02-26T15:32:21;13.20;99.90
2202;DHT22;1107;48.654;9.250;2024-02-26T15:34:49;13.10;99.90
2202;DHT22;1107;48.654;9.250;2024-02-26T15:37:17;13.00;99.90
2202;DHT22;1107;48.654;9.250;2024-02-26T15:39:44;13.00;99.90
2202;DHT22;1107;48.654;9.250;2024-02-26T15:42:11;13.00;99.90
2202;DHT22;1107;48.654;9.250;2024-02-26T15:44:38;12.80;99.90
2202;DHT22;1107;48.654;9.250;2024-02-26T15:47:06;12.80;99.90
2202;DHT22;1107;48.654;9.250;2024-02-26T15:49:33;12.70;99.90
2202;DHT22;1107;48.654;9.250;2024-02-26T15:52:00;12.70;99.90
2202;DHT22;1107;48.654;9.250;2024-02-26T15:54:27;12.60;99.90
2202;DHT22;1107;48.654;9.250;2024-02-26T15:56:53;12.60;99.90
2202;DHT22;1107;48.654;9.250;2024-02-26T15:59:20;12.50;99.90
2202;DHT22;1107;48.654;9.250;2024-02-26T16:01:48;12.50;99.90
2202;DHT22;1107;48.654;9.250;2024-02-26T16:04:16;12.40;99.90
2202;DHT22;1107;48.654;9.250;2024-02-26T16:06:43;12.40;99.90
2202;DHT22;1107;48.654;9.250;2024-02-26T16:09:10;12.40;99.90
2202;DHT22;1107;48.654;9.250;2024-02-26T16:11:37;12.40;99.90
2202;DHT22;1107;48.654;9.250;2024-02-26T16:14:07;12.30;99.90
2202;DHT22;1107;48.654;9.250;2024-02-26T16:16:36;12.20;99.90
2202;DHT22;1107;48.654;9.250;2024-02-26T16:19:07;12.10;99.90